Zaliv Amerika — C4ZR2 — position and weather

sailwx.info

Track history (hours):
 
Tides and Currents Weather Stations Pressure Air Temp Water Temp Dewpoint Dewpoint Depression Visibility Wind Speed Wind Dir Waves Ship Positions

Zaliv Amerika

Last reported at 2015-Mar-29 08:29 UTC. Time now 2015-Apr-01 08:04 UTC.
Position N 22°48' E 119°34'.

Length 243 m; draft 14.4 m.

Type: Tanker. MMSI: 210435000.

Date/timePositionNaut miles runAvg speedWind from/ knotsBaromVisibWave heightAir tempDewpointWater temp
2015-Mar-29 08:29N 22°48' E 119°34'1511.6
2015-Mar-29 07:12N 22°58' E 119°45'2210.2
2015-Mar-29 05:04N 23°19' E 119°53'1111.3
2015-Mar-29 04:06N 23°30' E 119°53'711.7
2015-Mar-29 03:27N 23°37' E 119°52'1211.7
2015-Mar-29 02:24N 23°50' E 119°53'1012.3
2015-Mar-29 01:33N 23°59' E 119°57'1212.2
2015-Mar-29 00:32N 24°11' E 120°03'2411.8
2015-Mar-28 22:28N 24°31' E 120°16'1311.7
2015-Mar-28 21:20N 24°43' E 120°24'911.6
2015-Mar-28 20:31N 24°51' E 120°29'1111.6
2015-Mar-28 19:32N 25°01' E 120°36'3511.7
2015-Mar-28 16:33N 25°31' E 120°56'  
Track history (hours):
 
Tides and Currents Weather Stations Pressure Air Temp Water Temp Dewpoint Dewpoint Depression Visibility Wind Speed Wind Dir Waves Ship Positions

Zaliv Amerika

Last reported at 2015-Mar-29 08:29 UTC. Time now 2015-Apr-01 08:04 UTC.
Position N 22°48' E 119°34'.

Length 243 m; draft 14.4 m.

Type: Tanker. MMSI: 210435000.

Date/timePositionNaut miles runAvg speedWind from/ knotsBaromVisibWave heightAir tempDewpointWater temp
2015-Mar-29 08:29N 22°48' E 119°34'1511.6
2015-Mar-29 07:12N 22°58' E 119°45'2210.2
2015-Mar-29 05:04N 23°19' E 119°53'1111.3
2015-Mar-29 04:06N 23°30' E 119°53'711.7
2015-Mar-29 03:27N 23°37' E 119°52'1211.7
2015-Mar-29 02:24N 23°50' E 119°53'1012.3
2015-Mar-29 01:33N 23°59' E 119°57'1212.2
2015-Mar-29 00:32N 24°11' E 120°03'2411.8
2015-Mar-28 22:28N 24°31' E 120°16'1311.7
2015-Mar-28 21:20N 24°43' E 120°24'911.6
2015-Mar-28 20:31N 24°51' E 120°29'1111.6
2015-Mar-28 19:32N 25°01' E 120°36'3511.7
2015-Mar-28 16:33N 25°31' E 120°56'  

Dump ship's entire track history